Time;durP1;ratioP1;P1;durP2;ratioP2;P2;SDS_P1;SDS_P2;PMS_P1;PMS_P2;Temp;Humidity;BMP_temperature;BMP_pressure;BME280_temperature;BME280_humidity;BME280_pressure;Samples;Min_cycle;Max_cycle;Signal;HPM_P1;HPM_P2
2022/12/24 00:01:03;;;;;;;6.03;4.53;;;20.60;40.10;;;;;;5068462;28;20040;-73
2022/12/24 00:03:31;;;;;;;7.72;6.03;;;20.60;40.10;;;;;;5067800;28;20048;-73
2022/12/24 00:05:58;;;;;;;5.53;4.65;;;20.60;40.10;;;;;;5068993;28;20044;-73
2022/12/24 00:08:25;;;;;;;5.85;4.75;;;20.60;40.10;;;;;;5068261;28;20413;-72
2022/12/24 00:10:53;;;;;;;6.22;5.18;;;20.60;40.10;;;;;;5068488;28;20106;-72
2022/12/24 00:13:20;;;;;;;5.50;4.90;;;20.60;40.20;;;;;;5067171;28;20051;-73
2022/12/24 00:15:48;;;;;;;5.97;4.22;;;20.60;40.10;;;;;;5068058;28;20143;-72
2022/12/24 00:18:15;;;;;;;5.88;4.50;;;20.60;40.10;;;;;;5068326;28;20049;-73
2022/12/24 00:20:47;;;;;;;6.43;5.05;;;20.60;40.10;;;;;;5067883;28;20048;-72
2022/12/24 00:23:15;;;;;;;6.35;4.95;;;20.60;40.20;;;;;;5066821;28;20048;-73
2022/12/24 00:25:42;;;;;;;5.53;4.55;;;20.60;40.20;;;;;;5068476;28;20131;-72
2022/12/24 00:28:10;;;;;;;5.90;4.45;;;20.60;40.20;;;;;;5067537;28;20128;-72
2022/12/24 00:30:38;;;;;;;6.65;4.95;;;20.60;40.20;;;;;;5063912;28;20051;-72
2022/12/24 00:33:06;;;;;;;5.95;4.97;;;20.60;40.20;;;;;;5067527;28;20076;-72
2022/12/24 00:35:34;;;;;;;5.32;4.70;;;20.60;40.20;;;;;;5068253;28;20048;-72
2022/12/24 00:38:02;;;;;;;5.63;4.65;;;20.60;40.20;;;;;;5067690;28;20458;-72
2022/12/24 00:40:31;;;;;;;5.18;4.40;;;20.60;40.20;;;;;;5068084;28;20468;-73
2022/12/24 00:42:58;;;;;;;5.93;4.60;;;20.60;40.20;;;;;;5068145;28;20131;-72
2022/12/24 00:45:28;;;;;;;6.32;4.55;;;20.60;40.20;;;;;;5067883;28;20287;-73
2022/12/24 00:47:55;;;;;;;6.22;4.57;;;20.60;40.20;;;;;;5068316;28;20128;-72
2022/12/24 00:50:22;;;;;;;5.38;4.78;;;20.50;40.10;;;;;;5067886;28;20106;-73
2022/12/24 00:52:49;;;;;;;5.28;4.10;;;20.50;40.10;;;;;;5067069;28;20131;-72
2022/12/24 00:55:16;;;;;;;5.72;4.40;;;20.50;40.10;;;;;;5068595;28;20052;-72
2022/12/24 00:57:43;;;;;;;5.05;3.95;;;20.50;40.10;;;;;;5067297;28;20048;-72
2022/12/24 01:00:11;;;;;;;5.00;4.40;;;20.50;40.20;;;;;;5068131;28;20058;-72
2022/12/24 01:02:38;;;;;;;4.75;4.03;;;20.50;40.20;;;;;;5064210;28;20091;-72
2022/12/24 01:05:11;;;;;;;6.10;4.95;;;20.50;40.20;;;;;;5063734;28;20057;-72
2022/12/24 01:07:43;;;;;;;5.88;4.07;;;20.50;40.20;;;;;;5068007;28;20044;-72
2022/12/24 01:10:12;;;;;;;6.50;4.68;;;20.50;40.20;;;;;;5067352;28;20075;-72
2022/12/24 01:12:40;;;;;;;5.18;4.00;;;20.50;40.20;;;;;;5067350;28;20051;-72
2022/12/24 01:15:09;;;;;;;6.13;4.35;;;20.50;40.20;;;;;;5067603;28;20613;-72
2022/12/24 01:17:36;;;;;;;4.68;4.07;;;20.50;40.20;;;;;;5067390;28;20048;-72
2022/12/24 01:20:05;;;;;;;5.97;5.15;;;20.50;40.20;;;;;;5068246;28;20052;-72
2022/12/24 01:22:32;;;;;;;5.93;4.22;;;20.60;40.30;;;;;;5066765;28;20045;-73
2022/12/24 01:24:59;;;;;;;4.72;3.83;;;20.60;40.30;;;;;;5068058;28;20366;-72
2022/12/24 01:27:26;;;;;;;4.57;4.15;;;20.60;40.30;;;;;;5066844;28;20052;-73
2022/12/24 01:29:53;;;;;;;4.57;3.75;;;20.60;40.30;;;;;;5068270;28;20393;-72
2022/12/24 01:32:20;;;;;;;5.68;4.53;;;20.50;40.30;;;;;;5066925;28;20052;-72
2022/12/24 01:34:47;;;;;;;4.88;3.80;;;20.60;40.30;;;;;;5067287;28;20513;-72
2022/12/24 01:37:15;;;;;;;5.25;4.03;;;20.60;40.30;;;;;;5065933;28;20049;-72
2022/12/24 01:39:42;;;;;;;5.30;3.78;;;20.60;40.30;;;;;;5062600;28;20049;-72
2022/12/24 01:45:45;;;;;;;4.75;3.97;;;20.60;40.30;;;;;;5068903;28;20076;-72
2022/12/24 01:48:31;;;;;;;4.60;4.13;;;20.50;40.20;;;;;;5071499;28;20049;-72
2022/12/24 01:51:23;;;;;;;4.70;3.88;;;20.50;40.20;;;;;;5070793;28;20054;-72
2022/12/24 01:53:59;;;;;;;4.28;3.58;;;20.50;40.20;;;;;;5071302;28;20051;-72
2022/12/24 01:56:29;;;;;;;4.50;3.55;;;20.50;40.20;;;;;;5071105;28;20135;-72
2022/12/24 01:59:01;;;;;;;5.10;3.60;;;20.50;40.20;;;;;;5070451;28;20048;-72
2022/12/24 02:01:29;;;;;;;4.07;3.45;;;20.50;40.20;;;;;;5070812;28;20049;-74
2022/12/24 02:03:56;;;;;;;4.75;4.00;;;20.50;40.20;;;;;;5070722;28;20044;-72
2022/12/24 02:06:24;;;;;;;4.70;4.15;;;20.50;40.20;;;;;;5070476;28;20431;-72
2022/12/24 02:08:51;;;;;;;4.55;3.63;;;20.50;40.20;;;;;;5071139;28;20407;-72
2022/12/24 02:11:21;;;;;;;4.35;3.72;;;20.50;40.20;;;;;;5065810;28;20044;-72
2022/12/24 02:13:54;;;;;;;6.00;4.60;;;20.50;40.20;;;;;;5070867;28;20072;-72
2022/12/24 02:16:51;;;;;;;3.60;3.25;;;20.50;40.20;;;;;;5070466;28;20059;-72
2022/12/24 02:19:57;;;;;;;5.05;3.90;;;20.50;40.20;;;;;;5071160;28;20048;-72
2022/12/24 02:23:02;;;;;;;3.63;3.20;;;20.50;40.30;;;;;;5069545;28;20048;-73
2022/12/24 02:26:09;;;;;;;4.30;3.45;;;20.50;40.20;;;;;;5070969;28;20060;-72
2022/12/24 02:29:16;;;;;;;4.55;3.80;;;20.50;40.30;;;;;;5069653;28;20317;-72
2022/12/24 02:32:02;;;;;;;3.60;3.30;;;20.50;40.30;;;;;;5069563;28;20139;-72
2022/12/24 02:34:39;;;;;;;3.88;3.28;;;20.50;40.30;;;;;;5069947;28;20051;-72
2022/12/24 02:37:17;;;;;;;4.13;3.70;;;20.50;40.30;;;;;;5070100;28;20084;-72
2022/12/24 02:40:00;;;;;;;4.22;3.50;;;20.50;40.30;;;;;;5070152;28;20460;-73
2022/12/24 02:42:36;;;;;;;5.20;3.90;;;20.50;40.30;;;;;;5068667;28;20048;-72
2022/12/24 02:45:13;;;;;;;4.22;3.80;;;20.50;40.30;;;;;;5070071;28;20056;-72
2022/12/24 02:47:42;;;;;;;3.15;2.70;;;20.50;40.30;;;;;;5070180;28;20055;-73
2022/12/24 02:50:13;;;;;;;3.78;3.30;;;20.50;40.30;;;;;;5065649;28;20070;-72
2022/12/24 02:52:43;;;;;;;3.97;3.17;;;20.50;40.30;;;;;;5069616;28;20495;-72
2022/12/24 02:55:14;;;;;;;3.78;3.40;;;20.50;40.30;;;;;;5068527;28;20048;-72
2022/12/24 02:58:07;;;;;;;4.28;3.38;;;20.50;40.30;;;;;;5070000;28;20037;-73
2022/12/24 03:01:17;;;;;;;4.25;3.35;;;20.50;40.30;;;;;;5069829;28;20051;-72
2022/12/24 03:04:09;;;;;;;3.95;3.25;;;20.50;40.30;;;;;;5067810;28;20051;-73
2022/12/24 03:06:55;;;;;;;4.38;3.60;;;20.50;40.30;;;;;;5068391;28;20804;-72
2022/12/24 03:09:56;;;;;;;3.20;2.90;;;20.50;40.30;;;;;;5069533;28;20056;-72
2022/12/24 03:12:32;;;;;;;3.50;3.20;;;20.50;40.30;;;;;;5069555;28;20139;-72
2022/12/24 03:15:00;;;;;;;3.47;3.13;;;20.50;40.30;;;;;;5069405;28;20389;-72
2022/12/24 03:17:27;;;;;;;3.67;2.90;;;20.50;40.30;;;;;;5068766;28;20084;-72
2022/12/24 03:19:55;;;;;;;5.53;3.42;;;20.50;40.40;;;;;;5069458;28;20040;-72
2022/12/24 03:22:24;;;;;;;3.53;3.20;;;20.50;40.40;;;;;;5064431;28;20127;-72
2022/12/24 03:24:51;;;;;;;3.40;3.05;;;20.50;40.40;;;;;;5068959;28;20197;-73
2022/12/24 03:27:19;;;;;;;3.55;3.05;;;20.50;40.40;;;;;;5068394;28;20446;-73
2022/12/24 03:29:46;;;;;;;3.40;2.92;;;20.50;40.40;;;;;;5069074;28;20665;-73
2022/12/24 03:32:13;;;;;;;3.83;2.97;;;20.50;40.40;;;;;;5067500;28;20052;-72
2022/12/24 03:34:40;;;;;;;3.72;2.70;;;20.50;40.40;;;;;;5069237;28;20067;-73
2022/12/24 03:37:07;;;;;;;4.20;3.15;;;20.50;40.40;;;;;;5068914;28;20669;-73
2022/12/24 03:39:35;;;;;;;3.38;3.03;;;20.50;40.40;;;;;;5068981;28;20051;-72
2022/12/24 03:42:02;;;;;;;2.80;2.55;;;20.50;40.40;;;;;;5067529;28;20058;-72
2022/12/24 03:44:29;;;;;;;3.20;2.90;;;20.50;40.50;;;;;;5068856;28;20139;-72
2022/12/24 03:46:56;;;;;;;2.85;2.58;;;20.40;40.40;;;;;;5068480;28;20052;-72
2022/12/24 03:49:23;;;;;;;3.03;2.72;;;20.50;40.50;;;;;;5068959;28;20139;-72
2022/12/24 03:51:50;;;;;;;3.22;2.90;;;20.50;40.40;;;;;;5067148;28;20509;-73
2022/12/24 03:54:17;;;;;;;3.00;2.67;;;20.50;40.40;;;;;;5064598;28;20500;-72
2022/12/24 03:56:44;;;;;;;3.53;2.75;;;20.50;40.40;;;;;;5068605;28;20505;-72
2022/12/24 03:59:11;;;;;;;3.28;2.88;;;20.50;40.40;;;;;;5068580;28;20048;-72
2022/12/24 04:01:38;;;;;;;2.90;2.42;;;20.50;40.40;;;;;;5068821;28;20048;-73
2022/12/24 04:04:06;;;;;;;2.78;2.50;;;20.50;40.40;;;;;;5068494;28;20037;-73
2022/12/24 04:06:33;;;;;;;3.05;2.42;;;20.50;40.40;;;;;;5068284;28;20055;-73
2022/12/24 04:09:03;;;;;;;3.60;2.65;;;20.50;40.50;;;;;;5048409;28;20366;-72
2022/12/24 04:11:31;;;;;;;3.50;3.20;;;20.50;40.40;;;;;;5048015;28;20045;-72
2022/12/24 04:13:59;;;;;;;2.75;2.55;;;20.50;40.50;;;;;;5047813;28;20132;-73
2022/12/24 04:16:26;;;;;;;3.55;2.63;;;20.50;40.40;;;;;;5048281;28;20049;-73
2022/12/24 04:18:53;;;;;;;3.10;2.80;;;20.50;40.40;;;;;;5048574;28;20052;-73
2022/12/24 04:21:20;;;;;;;2.47;2.28;;;20.50;40.40;;;;;;5048358;28;20071;-73
2022/12/24 04:23:47;;;;;;;3.40;2.65;;;20.50;40.40;;;;;;5047553;28;20049;-72
2022/12/24 04:26:14;;;;;;;3.05;2.70;;;20.50;40.50;;;;;;5048381;28;20375;-72
2022/12/24 04:28:42;;;;;;;3.30;3.00;;;20.50;40.40;;;;;;5047979;28;20041;-72
2022/12/24 04:31:15;;;;;;;2.33;2.13;;;20.50;40.50;;;;;;5043396;28;20041;-72
2022/12/24 04:33:43;;;;;;;3.75;2.90;;;20.50;40.40;;;;;;5048066;28;20055;-72
2022/12/24 04:36:13;;;;;;;3.33;2.60;;;20.50;40.50;;;;;;5048386;28;20049;-73
2022/12/24 04:38:40;;;;;;;3.00;2.67;;;20.40;40.50;;;;;;5048403;28;20511;-73
2022/12/24 04:41:16;;;;;;;4.55;2.80;;;20.50;40.50;;;;;;5047903;28;20059;-73
2022/12/24 04:43:51;;;;;;;2.55;2.35;;;20.40;40.50;;;;;;5047138;28;20532;-73
2022/12/24 04:46:22;;;;;;;3.08;2.70;;;20.40;40.40;;;;;;5048069;28;20114;-72
2022/12/24 04:48:49;;;;;;;;;;;20.40;40.50;;;;;;5048161;28;20050;-72
2022/12/24 04:51:17;;;;;;;2.33;2.10;;;20.40;40.50;;;;;;5047933;28;19924;-72
2022/12/24 04:53:45;;;;;;;2.83;2.25;;;20.40;40.40;;;;;;5047533;28;20116;-72
2022/12/24 04:56:16;;;;;;;2.55;2.35;;;20.40;40.50;;;;;;5048065;28;20421;-72
2022/12/24 04:58:43;;;;;;;;;;;20.40;40.50;;;;;;5047793;28;20510;-72
2022/12/24 05:01:17;;;;;;;2.65;2.45;;;20.40;40.50;;;;;;5047793;28;20365;-73
2022/12/24 05:03:45;;;;;;;2.40;2.20;;;20.40;40.50;;;;;;5042413;28;20048;-72
2022/12/24 05:06:14;;;;;;;2.80;2.35;;;20.40;41.00;;;;;;5047942;28;20059;-72
2022/12/24 05:08:42;;;;;;;2.30;2.10;;;20.40;40.50;;;;;;5047778;28;20045;-72
2022/12/24 05:11:14;;;;;;;2.33;2.13;;;20.40;40.50;;;;;;5047227;28;20131;-72
2022/12/24 05:13:43;;;;;;;3.72;2.42;;;20.40;40.50;;;;;;5047876;28;20155;-72
2022/12/24 05:16:15;;;;;;;3.42;2.30;;;20.40;40.50;;;;;;5047629;28;20119;-72
2022/12/24 05:18:43;;;;;;;2.30;2.10;;;20.40;40.50;;;;;;5046561;28;20413;-72
2022/12/24 05:21:14;;;;;;;2.33;2.13;;;20.40;40.50;;;;;;5070576;28;20297;-72
2022/12/24 05:26:40;;;;;;;2.35;2.15;;;20.40;40.50;;;;;;5071805;28;20490;-72
2022/12/24 05:29:10;;;;;;;2.40;2.20;;;20.40;40.50;;;;;;5071125;28;20052;-72
2022/12/24 05:31:39;;;;;;;;;;;20.40;40.50;;;;;;5071702;28;20132;-72
2022/12/24 05:34:07;;;;;;;2.22;2.03;;;20.40;40.50;;;;;;5071035;28;19921;-72
2022/12/24 05:36:34;;;;;;;2.72;2.40;;;20.50;40.50;;;;;;5066995;28;20047;-72
2022/12/24 05:39:02;;;;;;;2.40;2.20;;;20.40;40.50;;;;;;5069713;28;20171;-72
2022/12/24 05:41:29;;;;;;;2.38;2.17;;;20.40;40.50;;;;;;5071063;28;20044;-72
2022/12/24 05:43:57;;;;;;;2.35;2.22;;;20.40;40.50;;;;;;5070932;28;20090;-72
2022/12/24 05:46:24;;;;;;;2.38;2.17;;;20.40;40.50;;;;;;5071255;28;20074;-72
2022/12/24 05:48:52;;;;;;;2.97;2.70;;;20.40;40.50;;;;;;5070813;28;20643;-72
2022/12/24 05:51:21;;;;;;;3.03;2.42;;;20.40;40.50;;;;;;5070951;28;20489;-72
2022/12/24 05:53:50;;;;;;;3.17;2.47;;;20.40;40.50;;;;;;5069596;28;20052;-72
2022/12/24 05:56:20;;;;;;;2.70;2.25;;;20.40;40.50;;;;;;5070883;28;20051;-72
2022/12/24 05:58:48;;;;;;;2.55;2.35;;;20.50;40.50;;;;;;5070300;28;20505;-72
2022/12/24 06:01:15;;;;;;;2.50;2.30;;;20.50;40.50;;;;;;5071279;28;20053;-72
2022/12/24 06:03:43;;;;;;;2.70;2.33;;;20.50;40.40;;;;;;5069596;28;20045;-72
2022/12/24 06:06:12;;;;;;;2.67;2.22;;;20.50;40.40;;;;;;5071318;28;20086;-72
2022/12/24 06:08:41;;;;;;;4.15;3.00;;;20.50;40.30;;;;;;5066105;28;20071;-72
2022/12/24 06:11:13;;;;;;;3.03;2.72;;;20.60;40.30;;;;;;5069444;28;20050;-72
2022/12/24 06:13:41;;;;;;;2.40;2.00;;;20.60;40.30;;;;;;5071135;28;20040;-72
2022/12/24 06:16:12;;;;;;;2.55;2.35;;;20.60;40.30;;;;;;5070863;28;20147;-72
2022/12/24 06:18:40;;;;;;;2.38;2.17;;;20.60;40.20;;;;;;5070539;28;20465;-72
2022/12/24 06:21:08;;;;;;;2.58;2.20;;;20.60;40.20;;;;;;5070614;28;20063;-72
2022/12/24 06:23:37;;;;;;;2.90;2.60;;;20.70;40.20;;;;;;5069764;28;20126;-72
2022/12/24 06:26:06;;;;;;;2.42;2.22;;;20.60;40.10;;;;;;5069441;28;20052;-72
2022/12/24 06:28:36;;;;;;;3.17;2.85;;;20.70;40.10;;;;;;5070279;28;20045;-72
2022/12/24 06:31:04;;;;;;;3.95;2.97;;;20.70;40.10;;;;;;5069456;28;20623;-72
2022/12/24 06:33:33;;;;;;;2.92;2.40;;;20.70;40.10;;;;;;5070238;28;20053;-72
2022/12/24 06:36:00;;;;;;;2.83;2.42;;;20.70;40.00;;;;;;5069816;28;20041;-72
2022/12/24 06:38:31;;;;;;;2.55;2.35;;;20.70;40.00;;;;;;5070534;28;20080;-72
2022/12/24 06:40:58;;;;;;;2.88;2.60;;;20.80;40.00;;;;;;5069700;28;20093;-72
2022/12/24 06:43:25;;;;;;;3.05;2.42;;;20.80;40.00;;;;;;5065963;28;20052;-72
2022/12/24 06:45:52;;;;;;;2.70;2.50;;;20.70;39.90;;;;;;5068493;28;20292;-71
2022/12/24 06:48:20;;;;;;;3.55;2.72;;;20.80;40.00;;;;;;5070064;28;20054;-72
2022/12/24 06:50:47;;;;;;;3.97;2.95;;;20.80;40.00;;;;;;5070271;28;20327;-72
2022/12/24 06:53:15;;;;;;;3.15;2.33;;;20.80;39.90;;;;;;5069005;28;20071;-72
2022/12/24 06:55:42;;;;;;;2.50;2.28;;;20.80;39.90;;;;;;5070031;28;20461;-72
2022/12/24 06:58:09;;;;;;;3.13;2.78;;;20.80;39.90;;;;;;5069945;28;20041;-72
2022/12/24 07:00:37;;;;;;;2.88;2.25;;;20.80;39.80;;;;;;5068148;28;20041;-72
2022/12/24 07:03:04;;;;;;;2.40;2.20;;;20.90;39.90;;;;;;5069354;28;20051;-72
2022/12/24 07:05:31;;;;;;;2.80;2.20;;;20.90;39.90;;;;;;5068742;28;20052;-72
2022/12/24 07:07:58;;;;;;;2.55;2.35;;;20.90;39.80;;;;;;5069692;28;20500;-72
2022/12/24 07:10:25;;;;;;;2.90;2.30;;;20.90;39.80;;;;;;5069419;28;20131;-72
2022/12/24 07:12:52;;;;;;;3.20;2.67;;;20.90;39.70;;;;;;5068827;28;20048;-72
2022/12/24 07:15:20;;;;;;;2.65;2.35;;;20.90;39.70;;;;;;5065560;28;20560;-72
2022/12/24 07:17:47;;;;;;;2.78;2.50;;;20.90;39.70;;;;;;5069084;28;20501;-72
2022/12/24 07:20:14;;;;;;;3.42;2.92;;;20.90;39.70;;;;;;5069615;28;20512;-72
2022/12/24 07:22:42;;;;;;;3.53;2.95;;;21.00;39.70;;;;;;5068798;28;20055;-72
2022/12/24 07:25:10;;;;;;;2.85;2.17;;;21.00;39.70;;;;;;5069382;28;20071;-72
2022/12/24 07:27:38;;;;;;;2.70;2.20;;;21.00;39.70;;;;;;5069474;28;20568;-72
2022/12/24 07:30:06;;;;;;;2.20;2.00;;;21.00;39.60;;;;;;5069227;28;20203;-72
2022/12/24 07:32:33;;;;;;;2.50;2.30;;;21.00;39.60;;;;;;5067278;28;20087;-72
2022/12/24 07:35:00;;;;;;;3.45;2.60;;;21.00;39.50;;;;;;5068770;28;20429;-72
2022/12/24 07:37:27;;;;;;;2.70;2.45;;;21.10;39.60;;;;;;5069297;28;20586;-72
2022/12/24 07:39:54;;;;;;;4.15;2.42;;;21.10;39.50;;;;;;5068905;28;20139;-72
2022/12/24 07:42:21;;;;;;;2.50;2.17;;;21.10;39.50;;;;;;5067793;28;20052;-72
2022/12/24 07:44:48;;;;;;;2.60;2.38;;;21.10;39.50;;;;;;5069012;28;20045;-72
2022/12/24 07:47:15;;;;;;;3.10;2.10;;;21.10;39.40;;;;;;5066715;28;20567;-72
2022/12/24 07:49:42;;;;;;;3.13;2.83;;;21.20;39.50;;;;;;5066429;28;20393;-72
2022/12/24 07:52:10;;;;;;;2.45;2.10;;;21.20;39.40;;;;;;5067691;28;20131;-72
2022/12/24 07:54:37;;;;;;;2.65;2.42;;;21.20;39.40;;;;;;5068332;28;20046;-72
2022/12/24 07:57:04;;;;;;;2.42;2.20;;;21.20;39.30;;;;;;5069015;28;20036;-72
2022/12/24 07:59:31;;;;;;;2.65;2.28;;;21.30;39.40;;;;;;5067706;28;20251;-72
2022/12/24 08:01:58;;;;;;;3.33;2.63;;;21.30;39.30;;;;;;5068343;28;20048;-72
2022/12/24 08:04:25;;;;;;;2.33;2.10;;;21.30;39.20;;;;;;5068835;28;20471;-72
2022/12/24 08:06:52;;;;;;;2.47;1.90;;;21.40;39.20;;;;;;5068163;28;20084;-72
2022/12/24 08:09:20;;;;;;;3.00;2.20;;;21.40;39.20;;;;;;5068713;28;20097;-72
2022/12/24 08:11:47;;;;;;;2.60;2.40;;;21.40;39.20;;;;;;5067893;28;20094;-72
2022/12/24 08:14:18;;;;;;;3.10;2.00;;;21.40;39.10;;;;;;5068533;28;20147;-72
2022/12/24 08:16:45;;;;;;;2.28;2.08;;;21.40;39.00;;;;;;5068302;28;20070;-72
2022/12/24 08:19:13;;;;;;;2.75;2.22;;;21.50;39.00;;;;;;5068349;28;20049;-72
2022/12/24 08:21:40;;;;;;;3.50;2.28;;;21.50;39.00;;;;;;5063537;28;20441;-73
2022/12/24 08:24:07;;;;;;;1.90;1.80;;;21.50;39.00;;;;;;5067772;28;20048;-72
2022/12/24 08:26:34;;;;;;;1.85;1.75;;;21.50;38.90;;;;;;5068051;28;20578;-73
2022/12/24 08:29:03;;;;;;;2.15;1.65;;;21.60;38.90;;;;;;5068275;28;20045;-72
2022/12/24 08:31:35;;;;;;;3.08;2.35;;;21.60;38.90;;;;;;5068193;28;20055;-72
2022/12/24 08:34:03;;;;;;;2.53;2.33;;;21.60;38.80;;;;;;5067726;28;20044;-72
2022/12/24 08:36:30;;;;;;;2.28;2.08;;;21.60;38.80;;;;;;5067760;28;20409;-72
2022/12/24 08:38:58;;;;;;;2.60;2.10;;;21.70;38.80;;;;;;5067090;28;20460;-72
2022/12/24 08:41:25;;;;;;;2.72;1.90;;;21.70;38.80;;;;;;5067707;28;20055;-72
2022/12/24 08:43:52;;;;;;;2.45;2.25;;;21.70;38.80;;;;;;5067859;28;20047;-72
2022/12/24 08:46:19;;;;;;;2.58;1.98;;;21.70;38.80;;;;;;5068289;28;20049;-72
2022/12/24 08:48:46;;;;;;;2.10;1.90;;;21.70;38.80;;;;;;5066559;28;20394;-72
2022/12/24 08:51:13;;;;;;;2.28;1.98;;;21.70;38.80;;;;;;5068769;28;20044;-73
2022/12/24 08:53:41;;;;;;;4.03;2.60;;;21.70;38.80;;;;;;5065596;28;20812;-73
2022/12/24 08:56:10;;;;;;;2.20;2.00;;;21.70;38.70;;;;;;5065051;28;20135;-73
2022/12/24 08:58:37;;;;;;;2.13;1.92;;;21.70;38.80;;;;;;5067661;28;20047;-73
2022/12/24 09:01:14;;;;;;;1.83;1.70;;;21.80;38.80;;;;;;5067826;28;20161;-73
2022/12/24 09:03:41;;;;;;;2.22;1.58;;;21.80;38.80;;;;;;5066543;28;20049;-73
2022/12/24 09:06:09;;;;;;;2.38;2.03;;;21.80;39.30;;;;;;5067386;28;20047;-73
2022/12/24 09:08:37;;;;;;;2.05;1.95;;;21.80;38.80;;;;;;5067774;28;20132;-73
2022/12/24 09:11:13;;;;;;;2.90;2.10;;;21.80;38.80;;;;;;5067630;28;20044;-73
2022/12/24 09:13:41;;;;;;;2.65;1.85;;;21.80;38.70;;;;;;5067425;28;20408;-73
2022/12/24 09:16:08;;;;;;;2.53;2.10;;;21.80;38.70;;;;;;5068031;28;20079;-72
2022/12/24 09:18:36;;;;;;;2.20;2.00;;;21.90;38.70;;;;;;5066043;28;20045;-73
2022/12/24 09:21:07;;;;;;;1.95;1.75;;;21.90;38.70;;;;;;5066734;28;20049;-73
2022/12/24 09:23:38;;;;;;;2.55;2.35;;;21.90;38.70;;;;;;5066823;28;20082;-73
2022/12/24 09:26:20;;;;;;;1.88;1.77;;;21.90;38.70;;;;;;5067640;28;20040;-73
2022/12/24 09:28:47;;;;;;;2.10;1.90;;;21.90;38.70;;;;;;5062516;28;20044;-73
2022/12/24 09:31:15;;;;;;;2.20;1.90;;;21.90;38.60;;;;;;5067601;28;20412;-73
2022/12/24 09:33:44;;;;;;;3.22;1.88;;;21.90;38.60;;;;;;5067157;28;20118;-73
2022/12/24 09:36:11;;;;;;;1.95;1.85;;;21.90;38.60;;;;;;5067400;28;20079;-73
2022/12/24 09:38:39;;;;;;;2.13;1.92;;;22.00;38.60;;;;;;5066929;28;20044;-72
2022/12/24 09:41:22;;;;;;;2.63;2.03;;;22.00;38.60;;;;;;5067440;28;20044;-73
2022/12/24 09:44:02;;;;;;;3.58;2.00;;;22.00;38.60;;;;;;5067495;28;20045;-73
2022/12/24 09:46:38;;;;;;;2.72;1.75;;;22.00;38.50;;;;;;5067617;28;20080;-72
2022/12/24 09:49:15;;;;;;;2.63;2.20;;;22.00;38.50;;;;;;5067077;28;20072;-73
2022/12/24 09:51:50;;;;;;;2.47;2.28;;;22.00;38.40;;;;;;5066681;28;20047;-73
2022/12/24 09:54:27;;;;;;;2.88;2.17;;;22.00;38.40;;;;;;5065112;28;20079;-73
2022/12/24 09:56:58;;;;;;;2.33;2.13;;;22.10;38.50;;;;;;5067830;28;20044;-73
2022/12/24 09:59:41;;;;;;;2.10;1.90;;;22.10;38.50;;;;;;5062548;28;20052;-72
2022/12/24 10:02:12;;;;;;;2.15;1.95;;;22.10;38.40;;;;;;5066308;28;20306;-73
2022/12/24 10:04:41;;;;;;;2.60;1.67;;;22.10;38.40;;;;;;5049587;28;20404;-73
2022/12/24 10:07:27;;;;;;;2.42;1.90;;;22.10;38.30;;;;;;5070363;28;20561;-73
2022/12/24 10:10:21;;;;;;;1.90;1.75;;;22.10;38.30;;;;;;5070758;28;20605;-73
2022/12/24 10:13:15;;;;;;;2.05;1.88;;;22.20;38.30;;;;;;5070622;28;20489;-73
2022/12/24 10:15:55;;;;;;;2.40;2.17;;;22.20;38.30;;;;;;5069782;28;20052;-73
2022/12/24 10:18:50;;;;;;;2.75;2.17;;;22.20;38.30;;;;;;5070812;28;20041;-73
2022/12/24 10:21:45;;;;;;;3.42;2.63;;;22.20;38.30;;;;;;5069721;28;20441;-73
2022/12/24 10:24:21;;;;;;;2.25;2.03;;;22.20;38.30;;;;;;5070080;28;20051;-73
2022/12/24 10:27:10;;;;;;;2.53;2.20;;;22.20;38.30;;;;;;5070004;28;20044;-73
2022/12/24 10:29:42;;;;;;;1.90;1.80;;;22.20;38.30;;;;;;5070575;28;20052;-73
2022/12/24 10:32:22;;;;;;;2.72;2.47;;;22.20;38.30;;;;;;5065539;28;20815;-73
2022/12/24 10:35:07;;;;;;;2.40;2.15;;;22.20;38.30;;;;;;5070656;28;20048;-73
2022/12/24 10:37:34;;;;;;;2.85;2.63;;;22.20;38.20;;;;;;5069997;28;20135;-73
2022/12/24 10:40:02;;;;;;;2.90;2.60;;;22.20;38.20;;;;;;5070340;28;20044;-73
2022/12/24 10:42:41;;;;;;;2.55;2.35;;;22.20;38.20;;;;;;5069290;28;20160;-73
2022/12/24 10:45:20;;;;;;;2.63;2.25;;;22.30;38.20;;;;;;5070493;28;20052;-73
2022/12/24 10:47:56;;;;;;;3.97;2.88;;;22.30;38.20;;;;;;5069992;28;20143;-73
2022/12/24 10:50:50;;;;;;;2.85;2.53;;;22.30;38.20;;;;;;5069923;28;20123;-73
2022/12/24 10:53:39;;;;;;;3.40;2.95;;;22.30;38.20;;;;;;5069588;28;20482;-73
2022/12/24 10:56:10;;;;;;;3.67;2.63;;;22.30;38.10;;;;;;5070605;28;20045;-73
2022/12/24 10:58:44;;;;;;;2.97;2.67;;;22.30;38.10;;;;;;5068645;28;20106;-73
2022/12/24 11:01:12;;;;;;;4.90;3.10;;;22.40;38.10;;;;;;5069710;28;20037;-73
2022/12/24 11:03:39;;;;;;;3.65;2.92;;;22.40;38.20;;;;;;5069190;28;20110;-73
2022/12/24 11:06:12;;;;;;;3.63;3.33;;;22.40;38.10;;;;;;5065352;28;20045;-73
2022/12/24 11:08:42;;;;;;;4.88;3.25;;;22.40;38.10;;;;;;5068406;28;20151;-74
2022/12/24 11:11:16;;;;;;;4.47;3.15;;;22.30;38.10;;;;;;5069716;28;20157;-74
2022/12/24 11:13:56;;;;;;;3.90;3.53;;;22.40;38.10;;;;;;5069875;28;20086;-74
2022/12/24 11:16:34;;;;;;;3.80;3.17;;;22.40;38.10;;;;;;5069500;28;20129;-74
2022/12/24 11:19:05;;;;;;;4.70;3.05;;;22.40;38.20;;;;;;5069585;28;20131;-74
2022/12/24 11:21:38;;;;;;;3.53;2.92;;;22.40;38.20;;;;;;5068930;28;20045;-74
2022/12/24 11:24:27;;;;;;;4.22;3.47;;;22.30;38.10;;;;;;5068798;28;20135;-74
2022/12/24 11:27:14;;;;;;;5.05;3.58;;;22.40;38.20;;;;;;5069515;28;20044;-73
2022/12/24 11:29:41;;;;;;;3.97;3.40;;;22.40;38.20;;;;;;5069440;28;20045;-73
2022/12/24 11:32:22;;;;;;;3.33;2.90;;;22.40;38.20;;;;;;5069285;28;20045;-74
2022/12/24 11:34:49;;;;;;;4.88;3.20;;;22.40;38.20;;;;;;5069831;28;20102;-73
2022/12/24 11:37:23;;;;;;;4.13;3.47;;;22.30;38.20;;;;;;5063392;28;20044;-73
2022/12/24 11:39:54;;;;;;;3.75;3.30;;;22.30;38.20;;;;;;5067771;28;20143;-73
2022/12/24 11:42:36;;;;;;;4.82;3.25;;;22.30;38.20;;;;;;5068791;28;20449;-73
2022/12/24 11:45:16;;;;;;;4.40;3.83;;;22.30;38.20;;;;;;5068700;28;20110;-73
2022/12/24 11:47:43;;;;;;;4.23;3.57;;;22.30;38.20;;;;;;5069284;28;20135;-73
2022/12/24 11:50:34;;;;;;;3.63;3.05;;;22.30;38.30;;;;;;5068714;28;20128;-73
2022/12/24 11:53:17;;;;;;;3.95;3.55;;;22.30;38.30;;;;;;5068243;28;20044;-73
2022/12/24 11:55:54;;;;;;;3.95;3.22;;;22.30;38.30;;;;;;5068771;28;20048;-73
2022/12/24 11:58:36;;;;;;;4.28;3.33;;;22.30;38.30;;;;;;5067429;28;20139;-73
2022/12/24 12:01:39;;;;;;;4.53;3.80;;;22.30;38.30;;;;;;5068131;28;20490;-73
2022/12/24 12:04:18;;;;;;;3.40;3.08;;;22.30;38.40;;;;;;5068845;28;20045;-74
2022/12/24 12:06:59;;;;;;;4.65;3.60;;;22.30;38.80;;;;;;5066792;28;20037;-73
2022/12/24 12:09:40;;;;;;;4.72;4.00;;;22.30;38.30;;;;;;5064547;28;20084;-73
2022/12/24 12:12:24;;;;;;;4.60;3.65;;;22.30;38.30;;;;;;5068551;28;20044;-74
2022/12/24 12:14:57;;;;;;;4.03;3.15;;;22.40;38.30;;;;;;5068478;28;20048;-73
2022/12/24 12:17:49;;;;;;;3.72;3.05;;;22.30;38.20;;;;;;5050789;28;20085;-73
2022/12/24 12:20:30;;;;;;;3.85;3.42;;;22.30;38.20;;;;;;5067137;28;20283;-73
2022/12/24 12:23:32;;;;;;;4.75;3.53;;;22.40;38.20;;;;;;5068024;28;20048;-73
2022/12/24 12:26:09;;;;;;;4.72;3.72;;;22.40;38.20;;;;;;5068237;28;20052;-73
2022/12/24 12:28:44;;;;;;;4.35;3.50;;;22.50;38.20;;;;;;5066653;28;20569;-73
2022/12/24 12:31:21;;;;;;;5.00;3.45;;;22.50;38.10;;;;;;5067020;28;20083;-73
2022/12/24 12:34:15;;;;;;;4.28;3.40;;;22.40;38.10;;;;;;5067120;28;20415;-73
2022/12/24 12:36:50;;;;;;;4.63;3.35;;;22.50;38.10;;;;;;5067801;28;20321;-73
2022/12/24 12:39:17;;;;;;;3.88;3.33;;;22.50;38.10;;;;;;5068327;28;20087;-74
2022/12/24 12:42:19;;;;;;;5.50;3.78;;;22.50;38.20;;;;;;5062078;28;20041;-73
2022/12/24 12:45:02;;;;;;;4.00;3.30;;;22.50;38.20;;;;;;5066904;28;20079;-73
2022/12/24 12:47:53;;;;;;;4.15;2.80;;;22.40;38.10;;;;;;5067568;28;20131;-73
2022/12/24 12:50:46;;;;;;;3.78;3.13;;;22.50;38.20;;;;;;5067895;28;20041;-73
2022/12/24 12:53:29;;;;;;;3.85;3.05;;;22.50;38.20;;;;;;5067488;28;20046;-73
2022/12/24 12:56:25;;;;;;;3.72;2.88;;;22.50;38.20;;;;;;5068019;28;20048;-73
2022/12/24 12:59:09;;;;;;;3.67;2.75;;;22.50;38.20;;;;;;5067285;28;20051;-73
2022/12/24 13:02:15;;;;;;;4.00;3.58;;;22.40;38.20;;;;;;5067323;28;20131;-73
2022/12/24 13:05:22;;;;;;;3.55;3.22;;;22.40;38.20;;;;;;5066799;28;20086;-73
2022/12/24 13:08:09;;;;;;;3.97;3.25;;;22.40;38.20;;;;;;5066654;28;20500;-73
2022/12/24 13:11:02;;;;;;;4.00;3.40;;;22.50;38.20;;;;;;5067931;28;20052;-73
2022/12/24 13:13:57;;;;;;;3.90;2.97;;;22.50;38.20;;;;;;5062986;28;20127;-73
2022/12/24 13:16:55;;;;;;;3.83;3.33;;;22.50;38.20;;;;;;5046473;28;20126;-73
2022/12/24 13:19:41;;;;;;;3.13;2.83;;;22.50;38.20;;;;;;5048167;28;20045;-73
2022/12/24 13:22:17;;;;;;;3.45;2.88;;;22.50;38.20;;;;;;5047047;28;20049;-73
2022/12/24 13:24:52;;;;;;;3.47;2.90;;;22.50;38.20;;;;;;5047156;28;20041;-73